Time;durP1;ratioP1;P1;durP2;ratioP2;P2;SDS_P1;SDS_P2;PMS_P1;PMS_P2;Temp;Humidity;BMP_temperature;BMP_pressure;BME280_temperature;BME280_humidity;BME280_pressure;Samples;Min_cycle;Max_cycle;Signal;HPM_P1;HPM_P2
2021/01/15 00:00:54;;;;;;;18.40;8.40;;;;;;;-1.04;87.80;102083.28;5010158;28;20037;-65
2021/01/15 00:03:19;;;;;;;18.83;8.40;;;;;;;-1.09;88.15;102078.19;5009849;28;20064;-65
2021/01/15 00:05:45;;;;;;;17.60;8.40;;;;;;;-1.05;88.39;102076.34;5010662;28;20482;-65
2021/01/15 00:08:10;;;;;;;17.40;8.03;;;;;;;-1.03;88.51;102087.63;5010929;28;20575;-65
2021/01/15 00:10:35;;;;;;;23.30;9.60;;;;;;;-1.00;88.87;102079.66;4993646;28;20491;-65
2021/01/15 00:13:01;;;;;;;16.37;8.57;;;;;;;-0.92;88.93;102084.59;5010874;28;20034;-65
2021/01/15 00:15:26;;;;;;;15.67;8.40;;;;;;;-0.91;88.81;102081.94;5010342;28;20041;-65
2021/01/15 00:17:51;;;;;;;18.80;9.50;;;;;;;-0.87;88.74;102078.31;5013977;28;20300;-65
2021/01/15 00:20:17;;;;;;;16.77;8.07;;;;;;;-0.93;88.98;102078.50;5014366;28;20037;-65
2021/01/15 00:22:43;;;;;;;18.43;8.17;;;;;;;-0.92;88.95;102072.34;5013358;28;20037;-65
2021/01/15 00:25:10;;;;;;;16.83;8.13;;;;;;;-0.88;89.12;102081.81;4997105;28;20037;-65
2021/01/15 00:27:37;;;;;;;14.98;7.50;;;;;;;-0.82;89.31;102070.25;5013894;28;20045;-65
2021/01/15 00:30:04;;;;;;;14.80;7.10;;;;;;;-0.84;89.02;102079.94;5014226;28;20038;-65
2021/01/15 00:32:29;;;;;;;15.82;7.95;;;;;;;-0.82;89.10;102077.25;5014039;28;20100;-65
2021/01/15 00:34:54;;;;;;;16.27;8.00;;;;;;;-0.78;89.03;102073.63;5014191;28;20041;-65
2021/01/15 00:37:19;;;;;;;16.10;7.63;;;;;;;-0.80;89.22;102073.66;5012821;28;20091;-65
2021/01/15 00:39:45;;;;;;;15.10;6.90;;;;;;;-0.76;88.61;102075.25;5013031;28;20042;-65
2021/01/15 00:42:10;;;;;;;20.37;8.03;;;;;;;-0.79;88.63;102072.75;5013102;28;20048;-65
2021/01/15 00:44:36;;;;;;;17.00;7.75;;;;;;;-0.77;88.64;102072.69;4996702;28;20040;-65
2021/01/15 00:47:01;;;;;;;16.73;7.93;;;;;;;-0.82;88.65;102070.25;5012643;28;20066;-65
2021/01/15 00:49:27;;;;;;;21.77;9.10;;;;;;;-0.82;88.27;102066.75;5013807;28;20111;-65
2021/01/15 00:51:54;;;;;;;16.17;8.32;;;;;;;-0.86;88.40;102069.50;4996752;28;20367;-65
2021/01/15 00:54:24;;;;;;;17.35;7.95;;;;;;;-0.85;88.41;102057.25;5013764;28;20030;-65
2021/01/15 00:56:56;;;;;;;15.50;8.57;;;;;;;-0.83;87.78;102067.69;5012423;28;20061;-65
2021/01/15 00:59:23;;;;;;;19.90;8.43;;;;;;;-0.88;87.45;102071.31;5012678;28;20034;-65
2021/01/15 01:01:57;;;;;;;18.48;8.50;;;;;;;-0.78;87.27;102074.47;4997727;28;20117;-65
2021/01/15 01:04:23;;;;;;;17.75;7.85;;;;;;;-0.78;87.43;102063.97;5012556;28;20124;-66
2021/01/15 01:06:49;;;;;;;19.05;8.30;;;;;;;-0.75;86.78;102070.88;4996263;28;20046;-65
2021/01/15 01:09:14;;;;;;;13.50;7.20;;;;;;;-0.79;85.72;102074.53;5012498;28;20443;-65
2021/01/15 01:11:40;;;;;;;14.23;6.87;;;;;;;-0.73;85.77;102076.91;5013458;28;20041;-66
2021/01/15 01:14:05;;;;;;;14.67;7.70;;;;;;;-0.75;85.27;102079.63;5012367;28;20127;-65
2021/01/15 01:16:31;;;;;;;9.25;4.65;;;;;;;-0.74;84.36;102088.34;5013011;28;20054;-65
2021/01/15 01:18:57;;;;;;;17.83;6.18;;;;;;;-0.74;84.24;102083.09;5013407;28;20046;-65
2021/01/15 01:21:23;;;;;;;10.68;5.15;;;;;;;-0.76;83.53;102074.41;5013158;28;20042;-65
2021/01/15 01:23:49;;;;;;;8.75;4.60;;;;;;;-0.70;83.48;102082.91;5013198;28;20045;-65
2021/01/15 01:26:15;;;;;;;11.30;5.13;;;;;;;-0.75;83.54;102081.34;5012736;28;20092;-65
2021/01/15 01:28:42;;;;;;;7.97;4.20;;;;;;;-0.66;83.95;102079.28;4995785;28;20037;-65
2021/01/15 01:31:10;;;;;;;9.32;4.20;;;;;;;-0.66;82.67;102075.78;5012102;28;20034;-65
2021/01/15 01:33:36;;;;;;;6.57;3.90;;;;;;;-0.62;82.65;102079.16;5013040;28;20037;-65
2021/01/15 01:36:02;;;;;;;6.95;4.50;;;;;;;-0.66;82.64;102089.75;5011793;28;20478;-65
2021/01/15 01:38:27;;;;;;;14.45;4.82;;;;;;;-0.66;81.79;102086.25;5011926;28;20088;-65
2021/01/15 01:40:52;;;;;;;8.73;4.33;;;;;;;-0.65;81.72;102090.63;5012820;28;20041;-65
2021/01/15 01:43:18;;;;;;;11.33;3.60;;;;;;;-0.65;81.51;102088.84;5011924;28;20092;-65
2021/01/15 01:45:43;;;;;;;10.67;5.13;;;;;;;-0.65;81.70;102093.25;5012530;28;20073;-65
2021/01/15 01:48:09;;;;;;;9.07;4.17;;;;;;;-0.67;81.76;102101.16;5011870;28;20121;-65
2021/01/15 01:50:35;;;;;;;7.55;4.57;;;;;;;-0.62;80.68;102093.13;5012584;28;20033;-65
2021/01/15 01:53:02;;;;;;;;;;;;;;;-0.68;81.25;102098.56;5012155;28;20050;-65
2021/01/15 01:55:28;;;;;;;7.43;4.38;;;;;;;-0.74;80.78;102111.94;5011416;28;19913;-65
2021/01/15 01:57:54;;;;;;;8.27;4.18;;;;;;;-0.72;80.55;102097.84;5011334;28;20029;-65
2021/01/15 02:00:19;;;;;;;6.88;3.80;;;;;;;-0.73;80.33;102103.13;4995271;28;20367;-65
2021/01/15 02:02:44;;;;;;;8.98;3.63;;;;;;;-0.76;80.51;102095.41;5011451;28;20144;-65
2021/01/15 02:05:11;;;;;;;7.67;4.07;;;;;;;-0.79;80.77;102099.00;5012419;28;20107;-65
2021/01/15 02:07:36;;;;;;;7.10;3.67;;;;;;;-0.78;80.98;102098.06;4994809;28;20129;-65
2021/01/15 02:10:21;;;;;;;8.47;5.13;;;;;;;-0.75;80.46;102092.72;5012430;28;20117;-65
2021/01/15 02:13:07;;;;;;;8.77;4.07;;;;;;;-0.76;80.47;102090.16;5012300;28;20736;-65
2021/01/15 02:15:47;;;;;;;7.55;4.65;;;;;;;-0.76;79.84;102090.16;5012171;28;20077;-65
2021/01/15 02:18:26;;;;;;;6.50;3.92;;;;;;;-0.77;79.81;102084.06;5011161;28;20042;-64
2021/01/15 02:21:27;;;;;;;10.77;4.30;;;;;;;-0.83;79.71;102089.50;5011140;28;20045;-64
2021/01/15 02:24:01;;;;;;;10.27;5.32;;;;;;;-0.83;79.40;102088.66;5012159;28;20065;-64
2021/01/15 02:26:45;;;;;;;8.68;5.70;;;;;;;-0.85;79.97;102102.66;5011777;28;20044;-65
2021/01/15 02:29:18;;;;;;;7.57;3.90;;;;;;;-0.89;80.06;102093.22;5011953;28;20045;-64
2021/01/15 02:31:44;;;;;;;8.43;3.92;;;;;;;-0.90;79.56;102095.91;4994584;28;20493;-64
2021/01/15 02:34:43;;;;;;;8.70;3.90;;;;;;;-0.89;80.01;102089.72;5011999;28;20117;-64
2021/01/15 02:37:23;;;;;;;8.20;3.90;;;;;;;-0.93;79.80;102096.03;5011547;28;20041;-64
2021/01/15 02:40:02;;;;;;;9.38;4.50;;;;;;;-0.94;79.64;102097.75;5010356;28;20042;-64
2021/01/15 02:42:38;;;;;;;9.00;4.32;;;;;;;-0.97;79.32;102097.88;5010776;28;20069;-64
2021/01/15 02:45:08;;;;;;;9.63;5.03;;;;;;;-1.00;79.10;102098.00;5010991;28;20037;-64
2021/01/15 02:47:50;;;;;;;11.65;4.50;;;;;;;-0.97;79.03;102100.50;4994362;28;20423;-64
2021/01/15 02:50:21;;;;;;;8.93;4.50;;;;;;;-1.10;78.86;102102.72;4994481;28;20567;-64
2021/01/15 02:52:47;;;;;;;9.07;4.82;;;;;;;-1.04;79.05;102104.25;5011591;28;20029;-64
2021/01/15 02:55:13;;;;;;;10.48;4.90;;;;;;;-1.02;78.25;102099.81;5011676;28;20366;-64
2021/01/15 02:57:39;;;;;;;9.05;5.00;;;;;;;-1.03;77.99;102103.38;5011223;28;20030;-64
2021/01/15 03:00:06;;;;;;;;;;;;;;;-1.03;77.46;102108.59;5011259;28;20046;-64
2021/01/15 03:02:49;;;;;;;8.88;4.95;;;;;;;-1.13;78.12;102101.97;5011468;28;19928;-64
2021/01/15 03:05:23;;;;;;;8.60;4.50;;;;;;;-1.14;78.15;102106.34;5011475;28;20103;-64
2021/01/15 03:07:51;;;;;;;7.13;4.40;;;;;;;-1.06;77.85;102104.31;5010392;28;20510;-64
2021/01/15 03:10:20;;;;;;;9.65;5.00;;;;;;;-1.08;77.05;102105.25;5010703;28;20187;-64
2021/01/15 03:12:46;;;;;;;9.48;5.15;;;;;;;-1.14;77.46;102103.72;5010576;28;20516;-64
2021/01/15 03:15:14;;;;;;;8.45;4.20;;;;;;;-1.06;76.47;102111.31;5011421;28;20475;-64
2021/01/15 03:17:45;;;;;;;8.15;5.30;;;;;;;-1.09;76.46;102108.81;5010130;28;20049;-64
2021/01/15 03:20:11;;;;;;;7.72;4.55;;;;;;;-1.04;76.46;102112.13;5011285;28;20084;-64
2021/01/15 03:22:38;;;;;;;7.20;4.00;;;;;;;-1.01;75.66;102117.25;4994147;28;20129;-64
2021/01/15 03:25:05;;;;;;;13.40;5.22;;;;;;;-1.04;75.62;102109.50;5010348;28;20459;-64
2021/01/15 03:27:47;;;;;;;7.53;4.63;;;;;;;-1.04;76.06;102112.13;5010925;28;20030;-64
2021/01/15 03:30:29;;;;;;;9.55;5.45;;;;;;;-1.07;75.41;102120.09;5010301;28;20034;-64
2021/01/15 03:33:03;;;;;;;5.85;3.55;;;;;;;-1.00;75.45;102111.09;5011358;28;20026;-64
2021/01/15 03:35:30;;;;;;;7.38;4.22;;;;;;;-1.06;75.46;102116.56;5010196;28;20104;-64
2021/01/15 03:38:03;;;;;;;;;;;;;;;-0.99;74.79;102110.19;5011386;28;20038;-64
2021/01/15 03:40:35;;;;;;;8.40;4.97;;;;;;;-0.96;74.80;102120.59;5011203;28;19921;-64
2021/01/15 03:43:10;;;;;;;6.90;4.38;;;;;;;-1.01;74.52;102113.78;5011254;28;20057;-64
2021/01/15 03:45:35;;;;;;;7.60;4.57;;;;;;;-1.03;73.69;102121.72;5010205;28;20140;-64
2021/01/15 03:48:00;;;;;;;10.10;4.60;;;;;;;-1.01;74.25;102124.25;4993805;28;20054;-64
2021/01/15 03:50:26;;;;;;;8.97;5.03;;;;;;;-1.04;74.07;102121.75;5011349;28;20117;-64
2021/01/15 03:52:51;;;;;;;7.60;4.60;;;;;;;-0.93;73.14;102124.84;5014022;28;20038;-64
2021/01/15 03:55:16;;;;;;;10.17;5.23;;;;;;;-0.98;73.34;102125.03;5014858;28;20164;-64
2021/01/15 03:57:42;;;;;;;6.28;4.30;;;;;;;-0.98;74.36;102126.78;5014535;28;20042;-64
2021/01/15 04:00:08;;;;;;;8.93;4.75;;;;;;;-0.98;74.56;102124.19;5013815;28;20095;-64
2021/01/15 04:02:36;;;;;;;10.48;5.30;;;;;;;-1.02;74.26;102128.66;5013826;28;20124;-64
2021/01/15 04:05:02;;;;;;;13.23;6.43;;;;;;;-1.01;73.99;102132.97;5013505;28;20099;-64
2021/01/15 04:07:28;;;;;;;;;;;;;;;-1.03;74.41;102134.81;5014939;28;20095;-64
2021/01/15 04:09:54;;;;;;;10.73;4.78;;;;;;;-1.00;73.36;102124.22;5014665;28;20292;-64
2021/01/15 04:12:19;;;;;;;12.00;5.57;;;;;;;-0.97;73.71;102131.97;5013633;28;20084;-64
2021/01/15 04:14:44;;;;;;;9.50;5.73;;;;;;;-0.98;74.03;102119.78;5013682;28;20038;-64
2021/01/15 04:17:09;;;;;;;11.00;5.43;;;;;;;-1.06;73.80;102129.66;5014188;28;20775;-64
2021/01/15 04:19:35;;;;;;;8.60;5.07;;;;;;;-1.06;73.73;102125.25;5014405;28;20454;-64
2021/01/15 04:22:00;;;;;;;10.25;5.32;;;;;;;-0.95;73.59;102121.44;5013440;28;20462;-64
2021/01/15 04:24:26;;;;;;;9.82;5.47;;;;;;;-1.00;72.78;102123.38;5014452;28;20044;-64
2021/01/15 04:26:55;;;;;;;10.60;5.63;;;;;;;-1.03;71.68;102129.56;5013921;28;20062;-64
2021/01/15 04:29:21;;;;;;;8.70;4.63;;;;;;;-0.95;71.46;102134.53;5013310;28;20046;-64
2021/01/15 04:31:46;;;;;;;12.13;4.90;;;;;;;-0.91;71.91;102134.38;5013300;28;20052;-64
2021/01/15 04:34:12;;;;;;;9.27;5.43;;;;;;;-0.97;72.80;102134.59;5014058;28;20041;-64
2021/01/15 04:36:37;;;;;;;11.00;5.20;;;;;;;-0.91;72.56;102123.88;5013757;28;20030;-64
2021/01/15 04:39:04;;;;;;;9.35;5.28;;;;;;;-0.86;72.22;102126.34;5013168;28;20136;-64
2021/01/15 04:41:31;;;;;;;14.48;5.65;;;;;;;-0.88;72.48;102125.53;5013092;28;20046;-64
2021/01/15 04:43:56;;;;;;;9.60;6.00;;;;;;;-0.98;73.31;102122.41;5013080;28;20041;-64
2021/01/15 04:46:22;;;;;;;9.45;5.47;;;;;;;-0.96;73.28;102123.22;5013672;28;20052;-64
2021/01/15 04:48:51;;;;;;;10.00;6.03;;;;;;;-1.04;73.54;102127.84;5013809;28;20033;-64
2021/01/15 04:51:22;;;;;;;13.35;6.25;;;;;;;-1.07;74.02;102120.94;5013872;28;20065;-64
2021/01/15 04:54:01;;;;;;;11.63;5.95;;;;;;;-1.00;74.10;102121.59;5013881;28;20033;-64
2021/01/15 04:56:35;;;;;;;10.23;6.20;;;;;;;-0.98;74.29;102129.41;5013437;28;20048;-64
2021/01/15 04:59:02;;;;;;;12.25;5.93;;;;;;;-0.98;73.91;102125.03;5012732;28;20120;-64
2021/01/15 05:01:39;;;;;;;11.52;6.45;;;;;;;-1.00;74.08;102123.38;5012316;28;20363;-64
2021/01/15 05:04:14;;;;;;;12.98;6.88;;;;;;;-0.99;74.82;102128.53;5012515;28;20474;-64
2021/01/15 05:06:50;;;;;;;14.45;6.57;;;;;;;-0.98;74.57;102118.94;5012368;28;20037;-64
2021/01/15 05:09:17;;;;;;;13.30;7.30;;;;;;;-0.99;75.35;102120.66;5012587;28;20127;-64
2021/01/15 05:11:45;;;;;;;13.88;6.57;;;;;;;-1.08;75.89;102126.22;5012364;28;20316;-64
2021/01/15 05:14:13;;;;;;;11.23;6.80;;;;;;;-1.04;76.58;102138.34;5012473;28;20100;-64
2021/01/15 05:16:41;;;;;;;11.55;6.97;;;;;;;-1.06;75.99;102130.50;5013098;28;20360;-64
2021/01/15 05:19:08;;;;;;;15.52;7.07;;;;;;;-1.06;75.88;102137.53;5012300;28;20041;-64
2021/01/15 05:21:35;;;;;;;10.45;5.63;;;;;;;-1.02;75.53;102146.16;5013342;28;20030;-64
2021/01/15 05:24:01;;;;;;;12.00;6.22;;;;;;;-1.04;75.65;102138.34;5012244;28;20109;-64
2021/01/15 05:26:27;;;;;;;9.30;5.45;;;;;;;-1.12;75.35;102146.47;5011944;28;20052;-65
2021/01/15 05:28:53;;;;;;;16.50;6.30;;;;;;;-1.08;75.18;102142.84;5012209;28;20041;-64
2021/01/15 05:31:20;;;;;;;11.57;6.10;;;;;;;-1.08;74.62;102152.44;5013174;28;20042;-64
2021/01/15 05:34:11;;;;;;;9.15;5.13;;;;;;;-1.04;74.68;102151.44;5012955;28;20104;-64
2021/01/15 05:36:37;;;;;;;9.73;5.10;;;;;;;-1.04;74.08;102151.44;5011116;28;20077;-65
2021/01/15 05:39:06;;;;;;;10.70;5.10;;;;;;;-1.05;73.50;102152.38;4993942;28;20072;-64
2021/01/15 05:41:33;;;;;;;10.43;4.43;;;;;;;-0.99;73.10;102167.00;5010309;28;20038;-65
2021/01/15 05:43:59;;;;;;;6.82;3.75;;;;;;;-1.05;72.47;102152.38;5011020;28;20029;-64
2021/01/15 05:46:24;;;;;;;9.27;4.47;;;;;;;-1.13;72.30;102162.25;5010027;28;20034;-64
2021/01/15 05:48:53;;;;;;;7.57;4.07;;;;;;;-1.13;71.93;102165.72;5010118;28;20065;-64
2021/01/15 05:51:26;;;;;;;7.43;3.97;;;;;;;-1.05;71.72;102162.84;5010431;28;20029;-64
2021/01/15 05:53:52;;;;;;;7.13;4.40;;;;;;;-1.02;72.73;102167.97;5012682;28;20391;-64
2021/01/15 05:56:21;;;;;;;8.98;3.95;;;;;;;-1.08;72.13;102166.44;5012196;28;20065;-64
2021/01/15 05:59:19;;;;;;;7.20;5.00;;;;;;;-1.10;72.34;102180.47;5012604;28;20046;-64
2021/01/15 06:01:57;;;;;;;6.63;3.97;;;;;;;-1.17;72.84;102174.63;5011280;28;20112;-64
2021/01/15 06:04:32;;;;;;;9.50;4.88;;;;;;;-1.15;72.85;102172.78;5011449;28;20057;-65
2021/01/15 06:07:06;;;;;;;9.50;4.28;;;;;;;-1.18;72.88;102172.03;5012201;28;20044;-64
2021/01/15 06:09:31;;;;;;;9.40;3.88;;;;;;;-1.10;72.33;102173.50;5011489;28;20664;-64
2021/01/15 06:12:13;;;;;;;8.40;4.33;;;;;;;-1.21;72.64;102172.16;5012264;28;20062;-64
2021/01/15 06:17:40;;;;;;;8.02;3.40;;;;;;;-1.19;73.23;102176.41;5010814;28;20050;-64
2021/01/15 06:20:06;;;;;;;8.75;4.18;;;;;;;-1.24;73.78;102172.22;5012126;28;20026;-65
2021/01/15 06:22:47;;;;;;;7.13;4.03;;;;;;;-1.23;73.12;102184.44;5012005;28;20447;-64
2021/01/15 06:25:30;;;;;;;7.38;3.60;;;;;;;-1.25;73.47;102175.78;5012052;28;20072;-64
2021/01/15 06:27:57;;;;;;;7.45;3.63;;;;;;;-1.27;74.42;102179.28;5011917;28;20034;-64
2021/01/15 06:30:25;;;;;;;6.90;4.30;;;;;;;-1.31;74.63;102176.84;5010924;28;20034;-64
2021/01/15 06:32:52;;;;;;;11.43;4.50;;;;;;;-0.93;81.68;102183.38;4994588;28;20038;-64
2021/01/15 06:35:25;;;;;;;7.05;3.80;;;;;;;-0.67;76.63;102187.72;5011766;28;20099;-64
2021/01/15 06:38:02;;;;;;;9.57;5.05;;;;;;;-0.95;75.13;102186.97;5011710;28;20797;-64
2021/01/15 06:40:36;;;;;;;8.20;4.38;;;;;;;-1.12;74.75;102187.56;5010795;28;20034;-64
2021/01/15 06:43:07;;;;;;;5.57;3.80;;;;;;;-1.11;75.57;102195.34;5010889;28;20049;-65
2021/01/15 06:45:49;;;;;;;13.68;5.50;;;;;;;-1.16;75.58;102193.81;5010575;28;20543;-64
2021/01/15 06:48:23;;;;;;;6.28;3.83;;;;;;;-1.20;75.28;102194.81;5011739;28;20414;-64
2021/01/15 06:50:51;;;;;;;7.50;3.20;;;;;;;-1.28;73.58;102193.31;5010839;28;20042;-64
2021/01/15 06:53:16;;;;;;;5.60;3.75;;;;;;;-1.31;73.98;102198.66;5011760;28;20451;-64
2021/01/15 06:55:44;;;;;;;7.97;2.87;;;;;;;-1.23;73.00;102197.53;5010593;28;20037;-64
2021/01/15 06:58:17;;;;;;;6.88;3.20;;;;;;;-1.36;73.03;102197.94;5010800;28;20030;-64
2021/01/15 07:01:09;;;;;;;5.25;3.42;;;;;;;-1.30;73.22;102207.38;4992761;28;20037;-71
2021/01/15 07:04:08;;;;;;;4.63;3.15;;;;;;;-1.29;72.62;102207.31;5010034;28;20033;-71
2021/01/15 07:06:34;;;;;;;7.00;3.40;;;;;;;-1.32;72.53;102211.78;5009577;28;20038;-71
2021/01/15 07:09:01;;;;;;;;;;;;;;;-1.36;71.76;102216.28;5009517;28;20065;-72
2021/01/15 07:11:28;;;;;;;5.15;2.97;;;;;;;-1.42;71.65;102206.00;5010076;28;19913;-71
2021/01/15 07:13:59;;;;;;;5.57;2.97;;;;;;;-1.43;71.32;102220.00;5010068;28;20065;-71
2021/01/15 07:16:32;;;;;;;5.45;3.58;;;;;;;-1.40;71.23;102217.28;5010957;28;20041;-72
2021/01/15 07:19:06;;;;;;;5.47;2.50;;;;;;;-1.39;71.42;102226.84;5010492;28;20124;-71
2021/01/15 07:21:39;;;;;;;6.65;2.85;;;;;;;-1.46;71.82;102232.34;5011484;28;20056;-71
2021/01/15 07:24:08;;;;;;;4.53;2.80;;;;;;;-1.42;72.03;102240.06;5011450;28;20049;-72
2021/01/15 07:26:41;;;;;;;8.18;4.07;;;;;;;-1.40;71.64;102240.88;5015011;28;20568;-72
2021/01/15 07:29:14;;;;;;;7.07;3.75;;;;;;;-1.40;71.22;102246.13;5014425;28;20121;-72
2021/01/15 07:31:43;;;;;;;5.50;3.42;;;;;;;-1.43;72.16;102248.81;5015518;28;20129;-72
2021/01/15 07:34:17;;;;;;;7.85;4.47;;;;;;;-1.47;73.45;102241.97;4998040;28;20037;-72
2021/01/15 07:36:43;;;;;;;7.88;3.75;;;;;;;-1.38;73.08;102254.78;5014969;28;20045;-71
2021/01/15 07:39:14;;;;;;;6.05;3.75;;;;;;;-1.42;73.02;102257.53;5014199;28;20033;-72
2021/01/15 07:41:53;;;;;;;8.82;4.15;;;;;;;-1.42;73.78;102261.03;5015050;28;20045;-71
2021/01/15 07:44:25;;;;;;;9.13;5.43;;;;;;;-1.49;73.66;102252.50;4997761;28;20471;-72
2021/01/15 07:46:54;;;;;;;10.30;4.00;;;;;;;-1.42;74.34;102254.94;5014014;28;20129;-72
2021/01/15 07:49:21;;;;;;;6.25;3.55;;;;;;;-1.48;73.51;102261.19;5014020;28;20133;-72
2021/01/15 07:52:06;;;;;;;6.20;3.47;;;;;;;-1.46;74.32;102259.41;5014990;28;20045;-72
2021/01/15 07:54:46;;;;;;;4.95;2.35;;;;;;;-1.46;73.65;102262.00;5014926;28;20061;-71
2021/01/15 07:57:18;;;;;;;5.10;2.75;;;;;;;-1.38;74.76;102273.13;5014444;28;20038;-71
2021/01/15 07:59:44;;;;;;;5.57;3.65;;;;;;;-1.35;74.09;102270.41;5013735;28;20057;-71
2021/01/15 08:02:10;;;;;;;4.28;3.22;;;;;;;-1.31;74.20;102274.66;5013921;28;20424;-71
2021/01/15 08:04:35;;;;;;;3.55;2.40;;;;;;;-1.40;74.94;102279.31;4997176;28;20045;-72
2021/01/15 08:07:28;;;;;;;8.18;3.72;;;;;;;-1.43;75.40;102267.16;5013612;28;20038;-72
2021/01/15 08:09:53;;;;;;;5.45;3.17;;;;;;;-1.23;74.87;102273.53;5014670;28;20489;-72
2021/01/15 08:12:19;;;;;;;5.73;3.60;;;;;;;-1.25;74.69;102270.97;5014668;28;20088;-71
2021/01/15 08:14:44;;;;;;;4.95;3.20;;;;;;;-1.34;74.66;102279.97;5013600;28;20100;-72
2021/01/15 08:17:14;;;;;;;5.53;3.20;;;;;;;-1.28;75.63;102277.16;5013167;28;20052;-71
2021/01/15 08:19:41;;;;;;;6.13;3.47;;;;;;;-1.36;75.35;102276.56;5014474;28;20065;-71
2021/01/15 08:22:08;;;;;;;7.50;3.58;;;;;;;-1.37;74.60;102282.69;5014482;28;20077;-71
2021/01/15 08:25:00;;;;;;;5.05;3.35;;;;;;;-1.43;74.66;102272.38;5013383;28;20255;-72
2021/01/15 08:27:26;;;;;;;6.30;3.25;;;;;;;-1.35;74.47;102275.63;5013504;28;20054;-72
2021/01/15 08:29:51;;;;;;;6.45;3.33;;;;;;;-1.33;74.30;102276.44;5014282;28;20042;-71
2021/01/15 08:32:17;;;;;;;7.43;3.47;;;;;;;-1.42;74.13;102274.13;5014280;28;20048;-71
2021/01/15 08:34:44;;;;;;;5.17;2.57;;;;;;;-1.39;73.72;102279.25;5013389;28;20045;-71
2021/01/15 08:37:11;;;;;;;5.65;2.83;;;;;;;-1.47;73.28;102283.88;5012269;28;20050;-72
2021/01/15 08:39:45;;;;;;;6.18;2.72;;;;;;;-1.42;72.72;102274.13;5014146;28;20100;-72
2021/01/15 08:42:13;;;;;;;5.55;2.53;;;;;;;-1.34;73.21;102284.34;5012999;28;20499;-72
2021/01/15 08:44:38;;;;;;;6.13;2.67;;;;;;;-1.48;72.18;102284.78;5013994;28;20052;-72
2021/01/15 08:47:09;;;;;;;5.25;2.78;;;;;;;-1.44;71.88;102275.94;5013833;28;20041;-72
2021/01/15 08:49:34;;;;;;;7.55;2.72;;;;;;;-1.44;71.42;102291.66;5012971;28;20415;-72
2021/01/15 08:52:01;;;;;;;4.50;3.00;;;;;;;-1.46;70.59;102296.06;5012952;28;20068;-72
2021/01/15 08:54:28;;;;;;;6.65;2.78;;;;;;;-1.47;71.44;102291.75;5013804;28;20602;-72
2021/01/15 08:56:55;;;;;;;6.45;2.78;;;;;;;-1.45;71.62;102300.41;5013305;28;20455;-72
2021/01/15 08:59:28;;;;;;;4.22;2.60;;;;;;;-1.46;71.13;102296.06;5012745;28;20095;-72
2021/01/15 09:02:01;;;;;;;10.50;3.83;;;;;;;-1.51;70.57;102295.34;5012779;28;20049;-71
2021/01/15 09:04:29;;;;;;;5.93;3.17;;;;;;;-1.44;70.64;102296.88;5012655;28;20076;-71
2021/01/15 09:06:56;;;;;;;5.82;2.63;;;;;;;-1.53;71.35;102308.50;5013314;28;20173;-71
2021/01/15 09:09:24;;;;;;;4.68;2.22;;;;;;;-1.53;71.40;102307.63;5012574;28;20053;-71
2021/01/15 09:11:51;;;;;;;6.45;3.65;;;;;;;-1.51;71.83;102301.44;5013389;28;20076;-72
2021/01/15 09:14:21;;;;;;;5.80;2.72;;;;;;;-1.44;72.06;102309.13;5013481;28;20042;-72
2021/01/15 09:16:48;;;;;;;7.20;3.45;;;;;;;-1.47;72.17;102317.94;5010674;28;20042;-72
2021/01/15 09:19:15;;;;;;;5.35;2.95;;;;;;;-1.44;71.86;102317.84;5010720;28;20030;-72
2021/01/15 09:22:00;;;;;;;5.97;2.75;;;;;;;-1.46;71.64;102319.66;5010536;28;20140;-72
2021/01/15 09:24:27;;;;;;;5.55;3.10;;;;;;;-1.35;71.12;102321.94;5011597;28;20038;-72
2021/01/15 09:26:57;;;;;;;4.45;2.92;;;;;;;-1.29;71.00;102327.00;5011184;28;20034;-72
2021/01/15 09:29:23;;;;;;;6.50;3.22;;;;;;;-1.24;71.37;102334.72;5011419;28;20426;-72
2021/01/15 09:31:49;;;;;;;7.25;3.10;;;;;;;-1.30;70.84;102333.16;5011346;28;20064;-72
2021/01/15 09:34:15;;;;;;;4.57;2.58;;;;;;;-1.31;71.12;102340.16;5012070;28;20053;-72
2021/01/15 09:36:42;;;;;;;5.90;2.80;;;;;;;-1.30;71.67;102341.84;5012680;28;20073;-72
2021/01/15 09:39:07;;;;;;;5.35;2.83;;;;;;;-1.31;72.76;102334.91;5012185;28;20112;-72
2021/01/15 09:41:33;;;;;;;4.07;2.40;;;;;;;-1.25;73.44;102335.63;5011883;28;20168;-72
2021/01/15 09:43:58;;;;;;;7.13;3.33;;;;;;;-1.23;72.24;102346.91;5013088;28;20324;-72
2021/01/15 09:46:26;;;;;;;4.70;2.93;;;;;;;-1.29;71.96;102340.09;5012660;28;20466;-72
2021/01/15 09:48:53;;;;;;;3.70;2.40;;;;;;;-1.31;72.00;102348.03;5011717;28;20042;-71
2021/01/15 09:51:28;;;;;;;5.43;2.33;;;;;;;-1.21;72.86;102355.59;5011819;28;20041;-72
2021/01/15 09:53:57;;;;;;;5.20;2.38;;;;;;;-1.20;72.50;102359.91;5012851;28;20069;-72
2021/01/15 09:56:25;;;;;;;4.20;2.47;;;;;;;-1.19;72.47;102353.78;5012316;28;20077;-72
2021/01/15 09:58:50;;;;;;;8.18;3.38;;;;;;;-1.19;72.27;102352.03;5012619;28;20045;-65
2021/01/15 10:01:17;;;;;;;4.93;2.75;;;;;;;-1.25;72.02;102357.44;5012429;28;20073;-64
2021/01/15 10:03:43;;;;;;;3.63;2.30;;;;;;;-1.20;72.99;102359.91;5011565;28;20037;-64
2021/01/15 10:06:12;;;;;;;5.15;2.67;;;;;;;-1.16;72.97;102364.16;5012231;28;20026;-64
2021/01/15 10:08:38;;;;;;;4.15;2.50;;;;;;;-1.27;72.80;102367.09;5011521;28;20356;-65
2021/01/15 10:11:03;;;;;;;4.10;2.33;;;;;;;-1.27;72.61;102373.19;5012397;28;20089;-65
2021/01/15 10:13:28;;;;;;;9.03;3.07;;;;;;;-1.38;73.19;102370.06;5011501;28;20132;-64
2021/01/15 10:15:54;;;;;;;3.50;1.90;;;;;;;-1.40;72.15;102382.34;5011110;28;20129;-64
2021/01/15 10:18:19;;;;;;;10.37;2.70;;;;;;;-1.43;71.98;102361.47;5011338;28;20128;-64
2021/01/15 10:20:45;;;;;;;5.40;2.33;;;;;;;-1.46;71.62;102368.56;5011442;28;20137;-64
2021/01/15 10:23:11;;;;;;;8.25;2.72;;;;;;;-1.51;71.86;102373.94;5012177;28;20073;-64
2021/01/15 10:25:36;;;;;;;3.78;2.28;;;;;;;-1.48;72.03;102373.84;5011954;28;20041;-64
2021/01/15 10:28:02;;;;;;;3.43;2.13;;;;;;;-1.46;71.41;102379.91;5010946;28;20045;-64
2021/01/15 10:30:27;;;;;;;5.47;2.13;;;;;;;-1.43;70.64;102377.19;5010941;28;20034;-64
2021/01/15 10:32:52;;;;;;;4.27;2.10;;;;;;;-1.56;69.75;102375.84;5010698;28;20064;-64
2021/01/15 10:35:19;;;;;;;5.73;2.23;;;;;;;-1.46;70.62;102387.75;5019425;28;20110;-64
2021/01/15 10:37:45;;;;;;;8.98;2.88;;;;;;;-1.50;70.50;102388.75;5013716;28;20542;-64
2021/01/15 10:40:11;;;;;;;7.23;2.37;;;;;;;-1.59;70.00;102382.03;5031630;28;20048;-64
2021/01/15 10:42:38;;;;;;;5.65;2.38;;;;;;;-1.54;70.08;102384.53;5031452;28;20068;-64
2021/01/15 10:45:05;;;;;;;4.07;2.08;;;;;;;-1.50;70.28;102392.25;5030454;28;20087;-64
2021/01/15 10:47:30;;;;;;;6.18;2.28;;;;;;;-1.56;70.18;102392.41;5030251;28;20092;-64
2021/01/15 10:49:55;;;;;;;6.80;3.17;;;;;;;-1.70;70.49;102386.72;5031396;28;20064;-64
2021/01/15 10:52:21;;;;;;;7.20;2.20;;;;;;;-1.66;69.45;102385.72;5024678;28;20061;-64
2021/01/15 10:54:46;;;;;;;6.73;1.83;;;;;;;-1.63;69.85;102400.50;5011681;28;20423;-64
2021/01/15 10:57:11;;;;;;;7.67;1.87;;;;;;;-1.56;69.88;102391.56;5010432;28;20634;-64
2021/01/15 10:59:37;;;;;;;4.27;1.97;;;;;;;-1.71;69.97;102403.31;5011088;28;20471;-64
2021/01/15 11:02:02;;;;;;;4.97;2.37;;;;;;;-1.60;69.99;102408.25;5010696;28;20088;-64
2021/01/15 11:04:27;;;;;;;6.47;2.10;;;;;;;-1.67;69.40;102397.09;5011346;28;20057;-65
2021/01/15 11:06:54;;;;;;;3.77;2.13;;;;;;;-1.71;69.75;102401.56;5018727;28;20040;-64
2021/01/15 11:09:21;;;;;;;3.33;1.88;;;;;;;-1.86;69.17;102391.50;5028121;28;20059;-64
2021/01/15 11:11:47;;;;;;;6.18;2.58;;;;;;;-1.73;70.25;102406.00;5031145;28;20045;-64
2021/01/15 11:14:16;;;;;;;4.05;2.08;;;;;;;-1.57;69.64;102400.31;5030965;28;20033;-64
2021/01/15 11:16:42;;;;;;;3.47;2.28;;;;;;;-1.67;68.12;102404.09;5029919;28;20041;-64
2021/01/15 11:19:08;;;;;;;4.78;2.05;;;;;;;-1.59;68.73;102396.88;5030118;28;20048;-64
2021/01/15 11:21:33;;;;;;;4.65;1.98;;;;;;;-1.49;68.06;102404.44;5031193;28;20041;-65
2021/01/15 11:23:59;;;;;;;2.58;1.63;;;;;;;-1.58;66.09;102412.56;5031170;28;20379;-65
2021/01/15 11:26:25;;;;;;;3.70;2.23;;;;;;;-1.73;65.68;102405.16;5013320;28;20459;-64
2021/01/15 11:28:53;;;;;;;5.72;2.00;;;;;;;-1.65;66.24;102410.16;5030841;28;20761;-64
2021/01/15 11:31:18;;;;;;;18.85;2.95;;;;;;;-1.76;66.37;102407.81;5029981;28;20056;-65
2021/01/15 11:33:44;;;;;;;2.40;1.60;;;;;;;-1.77;66.07;102412.22;5031029;28;20034;-65
2021/01/15 11:36:10;;;;;;;5.88;1.58;;;;;;;-1.73;66.97;102416.47;5029775;28;20049;-64